Grant, NE

9:33 PM MST on November 26, 2014 (GMT -0700)
Searle | Change Station
CLOSE
Current Station
Airport
Location: Ogallala,
Elevation: 3278 ft
Nearby Weather Stations

Elev 3278 ft 41.12 °N, 101.77 °W | Updated 18 minutes ago

Mostly Cloudy
Mostly Cloudy
24 °F
Feels Like 24 °F
N
0
Wind Variable Wind from North

Today
High -- | Low -- °F
--% Chance of Precip.
Yesterday
High -- | Low -- °F
Precip. -- in
6:46 AM 4:21 PM
Waxing Crescent, 25% visible
Pressure 30.32 in
Visibility 0.2 miles
Clouds
Dew Point 24 °F
Humidity 98%
Rainfall 0.01 in
Snow Depth Not available.
UV Not available.
Pollen .10 out of 12
Air Quality Not available.
Flu Activity Not available.
METAR KOGA 270415Z AUTO 00000KT 1/4SM FZFG VV002 M04/M04 A3032 RMK AO2 T10421045

More Conditions Fewer Conditions

Pressure 30.32 in
Visibility 0.2 miles
Clouds
Dew Point 24 °F
Humidity 98%
Rainfall 0.01 in
Snow Depth Not available.
UV Not available.
Pollen .10 out of 12
Air Quality Not available.
Flu Activity Not available.
METAR KOGA 270415Z AUTO 00000KT 1/4SM FZFG VV002 M04/M04 A3032 RMK AO2 T10421045

More Conditions Fewer Conditions

10-Day Weather Forecast

Almanac

Astronomy

Nov. 26, 2014 Rise Set
Actual Time
Civil Twilight
Nautical Twilight
Astronomical Twilight
Moon
Length of Visible Light
Length of Day
Tomorrow will be .
, % of the Moon is Illuminated

Today's Extremes

State Highs State Lows

Community

WunderPhotos

Upload Photos

1,773,959 photos uploaded!

WunderBlogs® & News

Nearby

Air Quality

  Air Quality AQ Index Pollutant
Not available.

Snow Depth

Station Depth Elevation

Earthquake Activity

City Distance Mag. Time & Date
Minimum magnitude displayed is 2.5.

Coastal Water Temperatures

Place Temperature

Nearby Weather Stations